createdAt,value
2022-10-06T00:00:46.617Z,14.20
2022-10-06T00:03:13.815Z,14.20
2022-10-06T00:05:40.899Z,14.20
2022-10-06T00:08:10.239Z,14.20
2022-10-06T00:10:37.441Z,14.20
2022-10-06T00:13:04.180Z,14.20
2022-10-06T00:15:33.007Z,14.10
2022-10-06T00:17:59.910Z,14.20
2022-10-06T00:20:27.630Z,14.20
2022-10-06T00:22:56.995Z,14.20
2022-10-06T00:25:25.510Z,14.20
2022-10-06T00:27:53.324Z,14.20
2022-10-06T00:30:26.349Z,14.20
2022-10-06T00:32:57.211Z,14.20
2022-10-06T00:35:25.563Z,14.20
2022-10-06T00:37:53.143Z,14.20
2022-10-06T00:40:20.970Z,14.10
2022-10-06T00:43:06.515Z,14.10
2022-10-06T00:45:46.316Z,14.10
2022-10-06T00:48:18.910Z,14.00
2022-10-06T00:50:46.470Z,14.00
2022-10-06T00:53:14.813Z,14.00
2022-10-06T00:55:41.647Z,14.00
2022-10-06T00:58:09.809Z,14.00
2022-10-06T01:00:36.586Z,14.00
2022-10-06T01:03:13.132Z,14.00
2022-10-06T01:05:46.605Z,14.00
2022-10-06T01:08:14.639Z,14.00
2022-10-06T01:10:43.053Z,13.90
2022-10-06T01:13:13.261Z,13.90
2022-10-06T01:16:14.498Z,13.80
2022-10-06T01:18:43.499Z,13.80
2022-10-06T01:21:21.553Z,13.80
2022-10-06T01:23:49.971Z,13.70
2022-10-06T01:26:19.392Z,13.70
2022-10-06T01:28:47.962Z,13.70
2022-10-06T01:31:15.623Z,13.70
2022-10-06T01:33:43.819Z,13.60
2022-10-06T01:36:12.053Z,13.60
2022-10-06T01:38:38.787Z,13.60
2022-10-06T01:41:05.764Z,13.60
2022-10-06T01:43:34.645Z,13.60
2022-10-06T01:46:01.636Z,13.60
2022-10-06T01:48:28.833Z,13.60
2022-10-06T01:50:58.300Z,13.60
2022-10-06T01:53:25.266Z,13.60
2022-10-06T01:55:52.017Z,13.60
2022-10-06T01:58:24.261Z,13.60
2022-10-06T02:00:51.595Z,13.50
2022-10-06T02:03:18.409Z,13.50
2022-10-06T02:05:45.149Z,13.50
2022-10-06T02:08:12.859Z,13.40
2022-10-06T02:10:39.814Z,13.40
2022-10-06T02:13:14.660Z,13.40
2022-10-06T02:15:41.490Z,13.40
2022-10-06T02:18:08.553Z,13.40
2022-10-06T02:20:35.266Z,13.30
2022-10-06T02:23:02.027Z,13.40
2022-10-06T02:25:28.967Z,13.30
2022-10-06T02:27:56.011Z,13.30
2022-10-06T02:30:22.868Z,13.20
2022-10-06T02:32:49.928Z,13.20
2022-10-06T02:35:17.177Z,13.20
2022-10-06T02:37:44.534Z,13.20
2022-10-06T02:40:16.651Z,13.20
2022-10-06T02:42:45.612Z,13.20
2022-10-06T02:45:16.061Z,13.10
2022-10-06T02:47:42.916Z,13.10
2022-10-06T02:50:11.316Z,13.10
2022-10-06T02:52:38.742Z,13.10
2022-10-06T02:55:06.803Z,13.10
2022-10-06T02:57:33.593Z,13.10
2022-10-06T03:00:01.041Z,13.10
2022-10-06T03:02:31.145Z,13.10
2022-10-06T03:04:58.359Z,13.10
2022-10-06T03:07:25.318Z,13.10
2022-10-06T03:09:52.181Z,13.10
2022-10-06T03:12:22.345Z,13.20
2022-10-06T03:14:49.365Z,13.20
2022-10-06T03:17:16.361Z,13.10
2022-10-06T03:19:49.270Z,13.10
2022-10-06T03:22:16.311Z,13.10
2022-10-06T03:24:51.203Z,13.00
2022-10-06T03:27:18.120Z,13.00
2022-10-06T03:29:46.086Z,13.00
2022-10-06T03:32:14.567Z,12.90
2022-10-06T03:34:42.732Z,12.90
2022-10-06T03:37:12.849Z,12.80
2022-10-06T03:39:39.662Z,12.70
2022-10-06T03:42:06.546Z,12.70
2022-10-06T03:44:35.006Z,12.60
2022-10-06T03:47:02.418Z,12.60
2022-10-06T03:49:29.321Z,12.50
2022-10-06T03:51:56.190Z,12.50
2022-10-06T03:54:27.372Z,12.40
2022-10-06T03:56:54.507Z,12.40
2022-10-06T03:59:21.357Z,12.30
2022-10-06T04:01:49.946Z,12.30
2022-10-06T04:04:24.777Z,12.30
2022-10-06T04:06:57.222Z,12.30
2022-10-06T04:09:23.974Z,12.20
2022-10-06T04:11:52.451Z,12.20
2022-10-06T04:14:20.291Z,12.20
2022-10-06T04:16:49.214Z,12.20
2022-10-06T04:19:27.268Z,12.20
2022-10-06T04:21:56.045Z,12.20
2022-10-06T04:24:24.755Z,12.20
2022-10-06T04:26:52.563Z,12.20
2022-10-06T04:29:21.077Z,12.20
2022-10-06T04:31:52.816Z,12.20
2022-10-06T04:34:28.538Z,12.20
2022-10-06T04:36:55.777Z,12.20
2022-10-06T04:39:22.690Z,12.20
2022-10-06T04:41:49.554Z,12.20
2022-10-06T04:44:21.817Z,12.20
2022-10-06T04:46:49.017Z,12.10
2022-10-06T04:49:20.762Z,12.10
2022-10-06T04:51:50.648Z,12.10
2022-10-06T04:54:21.184Z,12.10
2022-10-06T04:56:53.483Z,12.10
2022-10-06T04:59:43.018Z,12.10
2022-10-06T05:02:11.012Z,12.10
2022-10-06T05:04:38.548Z,12.00
2022-10-06T05:07:06.221Z,12.00
2022-10-06T05:09:33.054Z,12.00
2022-10-06T05:12:01.410Z,12.00
2022-10-06T05:14:28.117Z,11.90
2022-10-06T05:16:54.999Z,11.90
2022-10-06T05:19:21.869Z,11.80
2022-10-06T05:21:48.730Z,11.80
2022-10-06T05:24:19.661Z,11.70
2022-10-06T05:26:46.633Z,11.70
2022-10-06T05:29:15.414Z,11.70
2022-10-06T05:31:43.919Z,11.60
2022-10-06T05:34:11.752Z,11.60
2022-10-06T05:36:39.006Z,11.60
2022-10-06T05:39:06.929Z,11.60
2022-10-06T05:41:42.726Z,11.60
2022-10-06T05:44:10.887Z,11.60
2022-10-06T05:46:39.829Z,11.60
2022-10-06T05:49:10.322Z,11.60
2022-10-06T05:51:40.517Z,11.50
2022-10-06T05:54:15.826Z,11.50
2022-10-06T05:56:42.909Z,11.50
2022-10-06T05:59:09.835Z,11.50
2022-10-06T06:01:41.989Z,11.50
2022-10-06T06:04:25.852Z,11.50
2022-10-06T06:06:55.793Z,11.50
2022-10-06T06:09:26.170Z,11.50
2022-10-06T06:11:54.708Z,11.40
2022-10-06T06:14:44.822Z,11.50
2022-10-06T06:17:16.473Z,11.50
2022-10-06T06:19:43.410Z,11.50
2022-10-06T06:22:10.279Z,11.50
2022-10-06T06:24:39.760Z,11.50
2022-10-06T06:27:08.113Z,11.50
2022-10-06T06:29:34.863Z,11.50
2022-10-06T06:32:01.832Z,11.60
2022-10-06T06:34:29.036Z,11.60
2022-10-06T06:37:01.180Z,11.60
2022-10-06T06:39:32.311Z,11.60
2022-10-06T06:41:59.215Z,11.70
2022-10-06T06:44:38.638Z,11.70
2022-10-06T06:47:12.645Z,11.80
2022-10-06T06:49:39.532Z,11.80
2022-10-06T06:52:08.457Z,11.80
2022-10-06T06:54:37.445Z,11.80
2022-10-06T06:57:09.788Z,11.90
2022-10-06T06:59:38.187Z,11.90
2022-10-06T07:02:07.095Z,11.90
2022-10-06T07:04:38.110Z,12.00
2022-10-06T07:07:07.976Z,12.00
2022-10-06T07:09:36.822Z,12.20
2022-10-06T07:12:09.012Z,12.40
2022-10-06T07:14:35.757Z,12.70
2022-10-06T07:17:22.715Z,13.00
2022-10-06T07:19:56.254Z,13.40
2022-10-06T07:22:43.972Z,13.70
2022-10-06T07:25:25.418Z,14.00
2022-10-06T07:28:00.099Z,14.20
2022-10-06T07:30:40.446Z,14.20
2022-10-06T07:33:19.685Z,14.20
2022-10-06T07:35:47.887Z,14.10
2022-10-06T07:38:17.356Z,14.00
2022-10-06T07:41:17.718Z,13.90
2022-10-06T07:43:42.413Z,13.80
2022-10-06T07:46:11.163Z,13.70
2022-10-06T07:48:50.046Z,13.70
2022-10-06T07:51:18.857Z,13.70
2022-10-06T07:53:50.702Z,13.70
2022-10-06T07:56:23.795Z,13.80
2022-10-06T07:58:55.883Z,13.90
2022-10-06T08:01:22.875Z,14.30
2022-10-06T08:03:50.669Z,14.70
2022-10-06T08:06:19.680Z,15.20
2022-10-06T08:08:52.617Z,15.70
2022-10-06T08:11:21.045Z,16.20
2022-10-06T08:13:48.322Z,16.60
2022-10-06T08:16:17.884Z,17.00
2022-10-06T08:18:53.337Z,17.40
2022-10-06T08:21:23.416Z,17.60
2022-10-06T08:23:51.726Z,17.80
2022-10-06T08:26:20.592Z,18.10
2022-10-06T08:28:49.992Z,18.50
2022-10-06T08:31:19.238Z,18.70
2022-10-06T08:33:47.450Z,18.80
2022-10-06T08:36:19.553Z,19.10
2022-10-06T08:38:49.848Z,19.30
2022-10-06T08:41:26.373Z,19.60
2022-10-06T08:44:07.408Z,19.80
2022-10-06T08:46:41.525Z,19.90
2022-10-06T08:49:18.229Z,20.20
2022-10-06T08:52:01.110Z,20.60
2022-10-06T08:54:48.275Z,20.80
2022-10-06T08:57:18.121Z,21.00
2022-10-06T08:59:48.020Z,21.30
2022-10-06T09:02:39.243Z,21.60
2022-10-06T09:05:06.834Z,21.70
2022-10-06T09:07:39.364Z,21.80
2022-10-06T09:10:22.240Z,22.00
2022-10-06T09:13:06.732Z,22.10
2022-10-06T09:15:50.767Z,22.20
2022-10-06T09:18:56.426Z,22.30
2022-10-06T09:21:53.102Z,22.40
2022-10-06T09:24:39.787Z,22.30
2022-10-06T09:27:19.743Z,22.40
2022-10-06T09:29:50.235Z,22.40
2022-10-06T09:32:18.836Z,22.60
2022-10-06T09:34:55.801Z,22.90
2022-10-06T09:37:23.485Z,22.90
2022-10-06T09:39:51.897Z,23.10
2022-10-06T09:42:29.668Z,23.30
2022-10-06T09:45:08.129Z,23.40
2022-10-06T09:47:36.234Z,23.30
2022-10-06T09:50:11.832Z,23.40
2022-10-06T09:52:39.408Z,23.50
2022-10-06T09:55:12.719Z,23.50
2022-10-06T09:57:47.497Z,23.20
2022-10-06T10:00:30.565Z,23.50
2022-10-06T10:03:02.772Z,23.60
2022-10-06T10:05:32.386Z,23.80
2022-10-06T10:08:24.026Z,24.30
2022-10-06T10:11:41.967Z,24.30
2022-10-06T10:14:20.301Z,24.20
2022-10-06T10:16:53.074Z,24.30
2022-10-06T10:19:36.944Z,23.90
2022-10-06T10:22:04.264Z,23.20
2022-10-06T10:24:41.698Z,22.60
2022-10-06T10:27:19.384Z,22.40
2022-10-06T10:30:11.409Z,22.80
2022-10-06T10:33:04.985Z,23.70
2022-10-06T10:35:41.637Z,24.40
2022-10-06T10:38:21.202Z,25.30
2022-10-06T10:40:48.966Z,25.20
2022-10-06T10:43:32.901Z,24.70
2022-10-06T10:46:16.790Z,23.90
2022-10-06T10:48:55.921Z,23.40
2022-10-06T10:51:37.027Z,23.30
2022-10-06T10:54:19.489Z,23.50
2022-10-06T10:56:49.591Z,24.10
2022-10-06T10:59:29.628Z,24.20
2022-10-06T11:02:05.416Z,24.50
2022-10-06T11:04:32.773Z,24.70
2022-10-06T11:07:36.141Z,25.20
2022-10-06T11:10:30.759Z,25.50
2022-10-06T11:13:10.242Z,25.60
2022-10-06T11:16:06.762Z,26.10
2022-10-06T11:19:11.039Z,26.20
2022-10-06T11:22:02.902Z,26.30
2022-10-06T11:24:58.445Z,26.30
2022-10-06T11:28:08.288Z,26.50
2022-10-06T11:31:00.258Z,26.70
2022-10-06T11:33:53.026Z,26.70
2022-10-06T11:36:43.873Z,26.50
2022-10-06T11:39:30.331Z,26.60
2022-10-06T11:42:16.887Z,26.70
2022-10-06T11:45:14.857Z,26.40
2022-10-06T11:48:05.735Z,26.00
2022-10-06T11:50:42.705Z,25.90
2022-10-06T11:53:31.532Z,26.00
2022-10-06T11:56:16.850Z,26.10
2022-10-06T11:58:55.365Z,26.20
2022-10-06T12:01:31.077Z,26.50
2022-10-06T12:04:10.077Z,26.50
2022-10-06T12:06:57.575Z,26.60
2022-10-06T12:09:33.170Z,26.40
2022-10-06T12:12:06.973Z,26.00
2022-10-06T12:17:05.134Z,25.30
2022-10-06T12:18:07.089Z,25.20
2022-10-06T12:21:06.247Z,25.80
2022-10-06T12:23:52.878Z,26.40
2022-10-06T12:26:32.867Z,26.30
2022-10-06T12:29:29.984Z,26.50
2022-10-06T12:32:18.766Z,26.60
2022-10-06T12:35:01.311Z,26.70
2022-10-06T12:37:44.197Z,27.20
2022-10-06T12:40:42.802Z,27.10
2022-10-06T12:43:12.519Z,27.20
2022-10-06T12:45:46.066Z,27.70
2022-10-06T12:48:40.248Z,27.90
2022-10-06T12:51:20.394Z,27.60
2022-10-06T12:54:11.437Z,27.30
2022-10-06T12:56:40.841Z,26.80
2022-10-06T12:59:22.487Z,26.40
2022-10-06T13:01:51.808Z,26.50
2022-10-06T13:04:44.977Z,26.50
2022-10-06T13:07:29.514Z,26.50
2022-10-06T13:10:19.524Z,26.10
2022-10-06T13:12:47.668Z,25.70
2022-10-06T13:15:16.127Z,25.60
2022-10-06T13:17:44.511Z,25.90
2022-10-06T13:20:40.093Z,26.10
2022-10-06T13:23:15.863Z,26.40
2022-10-06T13:25:46.286Z,26.40
2022-10-06T13:28:23.905Z,26.00
2022-10-06T13:33:41.520Z,25.50
2022-10-06T13:36:09.509Z,25.60
2022-10-06T13:38:37.888Z,25.60
2022-10-06T13:41:05.962Z,25.80
2022-10-06T13:43:39.758Z,25.80
2022-10-06T13:46:12.551Z,25.70
2022-10-06T13:48:52.581Z,25.80
2022-10-06T13:51:22.809Z,25.90
2022-10-06T13:53:50.236Z,25.90
2022-10-06T13:56:39.893Z,25.60
2022-10-06T13:59:24.826Z,25.40
2022-10-06T14:01:51.630Z,25.30
2022-10-06T14:04:19.384Z,25.10
2022-10-06T14:06:55.824Z,24.90
2022-10-06T14:09:29.414Z,24.80
2022-10-06T14:12:11.786Z,24.30
2022-10-06T14:14:39.508Z,23.90
2022-10-06T14:17:06.845Z,23.80
2022-10-06T14:19:36.836Z,24.00
2022-10-06T14:22:05.657Z,24.50
2022-10-06T14:24:37.301Z,24.80
2022-10-06T14:27:06.510Z,25.20
2022-10-06T14:29:34.271Z,25.50
2022-10-06T14:32:17.962Z,25.60
2022-10-06T14:34:45.009Z,25.50
2022-10-06T14:37:18.021Z,25.10
2022-10-06T14:39:45.586Z,24.80
2022-10-06T14:42:14.333Z,24.50
2022-10-06T14:44:41.174Z,24.30
2022-10-06T14:47:09.231Z,24.00
2022-10-06T14:49:39.161Z,23.80
2022-10-06T14:52:07.035Z,23.50
2022-10-06T14:54:34.697Z,23.00
2022-10-06T14:57:01.515Z,22.80
2022-10-06T14:59:28.634Z,22.90
2022-10-06T15:01:55.443Z,23.00
2022-10-06T15:04:24.870Z,22.80
2022-10-06T15:07:10.090Z,22.60
2022-10-06T15:09:37.365Z,22.60
2022-10-06T15:12:04.638Z,22.60
2022-10-06T15:14:31.935Z,22.60
2022-10-06T15:17:02.154Z,22.40
2022-10-06T15:19:28.870Z,22.10
2022-10-06T15:21:56.216Z,21.90
2022-10-06T15:24:23.007Z,21.80
2022-10-06T15:27:08.340Z,21.80
2022-10-06T15:29:35.301Z,22.10
2022-10-06T15:32:04.183Z,22.30
2022-10-06T15:34:33.725Z,22.50
2022-10-06T15:37:01.922Z,22.60
2022-10-06T15:39:35.285Z,22.20
2022-10-06T15:42:02.387Z,21.80
2022-10-06T15:44:32.056Z,21.50
2022-10-06T15:46:59.033Z,21.30
2022-10-06T15:49:28.797Z,21.20
2022-10-06T15:52:03.838Z,21.30
2022-10-06T15:54:33.798Z,21.30
2022-10-06T15:57:02.542Z,21.30
2022-10-06T15:59:32.549Z,21.20
2022-10-06T16:02:15.602Z,21.10
2022-10-06T16:04:43.168Z,20.70
2022-10-06T16:07:16.094Z,20.50
2022-10-06T16:09:51.198Z,20.30
2022-10-06T16:12:21.259Z,20.10
2022-10-06T16:14:48.021Z,19.90
2022-10-06T16:17:15.511Z,19.70
2022-10-06T16:19:43.142Z,19.60
2022-10-06T16:22:14.047Z,19.50
2022-10-06T16:24:41.012Z,19.20
2022-10-06T16:27:11.034Z,18.90
2022-10-06T16:29:37.861Z,18.80
2022-10-06T16:32:04.653Z,18.60
2022-10-06T16:34:31.580Z,18.50
2022-10-06T16:36:58.611Z,18.30
2022-10-06T16:39:25.548Z,18.20
2022-10-06T16:41:53.944Z,18.10
2022-10-06T16:44:20.681Z,17.90
2022-10-06T16:46:47.644Z,17.90
2022-10-06T16:49:14.477Z,17.80
2022-10-06T16:51:46.040Z,17.70
2022-10-06T16:54:14.665Z,17.60
2022-10-06T16:56:47.439Z,17.50
2022-10-06T16:59:25.935Z,17.30
2022-10-06T17:01:53.408Z,17.30
2022-10-06T17:04:22.513Z,17.20
2022-10-06T17:06:54.821Z,17.10
2022-10-06T17:09:24.006Z,17.00
2022-10-06T17:11:56.033Z,17.00
2022-10-06T17:14:22.774Z,17.00
2022-10-06T17:16:51.606Z,16.90
2022-10-06T17:19:20.521Z,16.90
2022-10-06T17:21:50.524Z,16.80
2022-10-06T17:24:19.976Z,16.70
2022-10-06T17:26:48.935Z,16.60
2022-10-06T17:29:21.448Z,16.50
2022-10-06T17:31:50.486Z,16.40
2022-10-06T17:34:22.291Z,16.30
2022-10-06T17:36:52.058Z,16.20
2022-10-06T17:39:23.064Z,16.10
2022-10-06T17:41:52.499Z,16.10
2022-10-06T17:44:26.836Z,16.00
2022-10-06T17:46:56.348Z,16.00
2022-10-06T17:49:24.368Z,15.90
2022-10-06T17:51:53.381Z,15.80
2022-10-06T17:54:22.288Z,15.70
2022-10-06T17:56:51.485Z,15.70
2022-10-06T17:59:30.694Z,15.60
2022-10-06T18:02:01.057Z,15.60
2022-10-06T18:04:28.821Z,15.50
2022-10-06T18:06:56.254Z,15.40
2022-10-06T18:09:23.369Z,15.40
2022-10-06T18:11:55.281Z,15.30
2022-10-06T18:14:25.016Z,15.30
2022-10-06T18:17:00.759Z,15.30
2022-10-06T18:19:32.762Z,15.20
2022-10-06T18:22:02.033Z,15.20
2022-10-06T18:24:30.868Z,15.20
2022-10-06T18:26:59.979Z,15.10
2022-10-06T18:29:30.200Z,15.10
2022-10-06T18:32:14.055Z,15.10
2022-10-06T18:37:31.141Z,15.00
2022-10-06T18:39:58.080Z,14.90
2022-10-06T18:42:25.558Z,14.80
2022-10-06T18:45:10.748Z,14.70
2022-10-06T18:47:56.390Z,14.70
2022-10-06T18:50:23.439Z,14.70
2022-10-06T18:52:50.173Z,14.70
2022-10-06T18:55:17.145Z,14.70
2022-10-06T18:57:44.907Z,14.60
2022-10-06T19:00:12.549Z,14.60
2022-10-06T19:02:39.348Z,14.60
2022-10-06T19:05:06.352Z,14.60
2022-10-06T19:07:33.106Z,14.50
2022-10-06T19:09:59.823Z,14.50
2022-10-06T19:12:26.654Z,14.50
2022-10-06T19:14:53.425Z,14.40
2022-10-06T19:17:22.735Z,14.40
2022-10-06T19:19:51.384Z,14.40
2022-10-06T19:22:21.686Z,14.30
2022-10-06T19:24:48.595Z,14.30
2022-10-06T19:27:23.871Z,14.30
2022-10-06T19:29:56.396Z,14.20
2022-10-06T19:32:26.524Z,14.20
2022-10-06T19:34:57.772Z,14.20
2022-10-06T19:37:29.188Z,14.10
2022-10-06T19:39:56.004Z,14.10
2022-10-06T19:42:41.481Z,14.10
2022-10-06T19:45:09.608Z,14.00
2022-10-06T19:47:36.482Z,14.00
2022-10-06T19:50:08.780Z,13.90
2022-10-06T19:52:38.445Z,13.90
2022-10-06T19:55:05.536Z,13.80
2022-10-06T19:57:33.538Z,13.80
2022-10-06T20:00:00.589Z,13.80
2022-10-06T20:02:28.796Z,13.70
2022-10-06T20:04:56.113Z,13.70
2022-10-06T20:07:27.398Z,13.70
2022-10-06T20:09:54.809Z,13.60
2022-10-06T20:12:25.050Z,13.60
2022-10-06T20:14:53.668Z,13.60
2022-10-06T20:17:22.194Z,13.60
2022-10-06T20:19:50.259Z,13.50
2022-10-06T20:22:18.590Z,13.50
2022-10-06T20:24:45.415Z,13.40
2022-10-06T20:27:12.270Z,13.30
2022-10-06T20:29:39.062Z,13.30
2022-10-06T20:32:05.876Z,13.30
2022-10-06T20:34:33.224Z,13.30
2022-10-06T20:37:04.349Z,13.20
2022-10-06T20:39:51.807Z,13.20
2022-10-06T20:42:19.808Z,13.20
2022-10-06T20:44:47.080Z,13.20
2022-10-06T20:47:14.049Z,13.10
2022-10-06T20:49:42.670Z,13.10
2022-10-06T20:52:09.950Z,13.10
2022-10-06T20:54:37.317Z,13.00
2022-10-06T20:57:05.740Z,13.00
2022-10-06T20:59:35.138Z,13.00
2022-10-06T21:02:03.065Z,13.00
2022-10-06T21:04:30.059Z,13.00
2022-10-06T21:06:57.520Z,13.00
2022-10-06T21:09:24.933Z,12.90
2022-10-06T21:11:52.094Z,12.90
2022-10-06T21:14:19.901Z,12.90
2022-10-06T21:16:48.194Z,12.80
2022-10-06T21:19:16.844Z,12.80
2022-10-06T21:21:49.631Z,12.80
2022-10-06T21:24:16.716Z,12.80
2022-10-06T21:26:43.657Z,12.70
2022-10-06T21:29:15.333Z,12.70
2022-10-06T21:31:43.106Z,12.70
2022-10-06T21:34:10.524Z,12.60
2022-10-06T21:36:38.358Z,12.60
2022-10-06T21:39:06.952Z,12.60
2022-10-06T21:41:41.023Z,12.50
2022-10-06T21:44:15.139Z,12.50
2022-10-06T21:46:53.168Z,12.40
2022-10-06T21:49:24.734Z,12.40
2022-10-06T21:51:53.960Z,12.40
2022-10-06T21:54:21.884Z,12.30
2022-10-06T21:56:49.057Z,12.30
2022-10-06T21:59:16.105Z,12.30
2022-10-06T22:01:45.193Z,12.20
2022-10-06T22:04:14.171Z,12.20
2022-10-06T22:06:41.785Z,12.20
2022-10-06T22:09:13.202Z,12.10
2022-10-06T22:11:41.097Z,12.10
2022-10-06T22:14:13.331Z,12.10
2022-10-06T22:16:40.615Z,12.10
2022-10-06T22:19:10.440Z,12.10
2022-10-06T22:21:42.618Z,12.10
2022-10-06T22:24:15.829Z,12.10
2022-10-06T22:26:43.686Z,12.00
2022-10-06T22:29:12.740Z,12.00
2022-10-06T22:31:41.810Z,12.00
2022-10-06T22:34:10.442Z,12.00
2022-10-06T22:36:37.920Z,12.00
2022-10-06T22:39:05.089Z,12.00
2022-10-06T22:41:31.938Z,12.00
2022-10-06T22:43:59.715Z,12.00
2022-10-06T22:46:31.882Z,12.00
2022-10-06T22:48:58.938Z,12.00
2022-10-06T22:51:26.248Z,12.00
2022-10-06T22:53:58.758Z,12.10
2022-10-06T22:56:31.596Z,12.10
2022-10-06T22:58:59.748Z,12.10
2022-10-06T23:01:28.390Z,12.10
2022-10-06T23:03:55.623Z,12.10
2022-10-06T23:06:22.515Z,12.10
2022-10-06T23:08:49.310Z,12.10
2022-10-06T23:11:18.541Z,12.10
2022-10-06T23:13:45.974Z,12.10
2022-10-06T23:16:15.210Z,12.10
2022-10-06T23:18:43.635Z,12.10
2022-10-06T23:21:17.559Z,12.10
2022-10-06T23:23:44.955Z,12.10
2022-10-06T23:26:14.128Z,12.10
2022-10-06T23:28:41.597Z,12.10
2022-10-06T23:31:10.122Z,12.10
2022-10-06T23:33:37.194Z,12.10
2022-10-06T23:36:10.261Z,12.10
2022-10-06T23:38:38.382Z,12.00
2022-10-06T23:41:06.570Z,12.00
2022-10-06T23:43:33.676Z,12.00
2022-10-06T23:46:00.994Z,12.00
2022-10-06T23:48:28.066Z,12.00
2022-10-06T23:50:59.594Z,12.00
2022-10-06T23:53:27.518Z,12.00
2022-10-06T23:55:54.915Z,12.00
2022-10-06T23:58:22.483Z,12.00
